createdAt,value
2018-01-05T00:01:46.140Z,7.40
2018-01-05T00:04:13.710Z,7.50
2018-01-05T00:06:41.942Z,7.50
2018-01-05T00:09:09.434Z,7.50
2018-01-05T00:11:36.898Z,7.50
2018-01-05T00:14:05.142Z,7.40
2018-01-05T00:16:33.452Z,7.40
2018-01-05T00:19:01.688Z,7.40
2018-01-05T00:21:29.161Z,7.30
2018-01-05T00:23:56.653Z,7.30
2018-01-05T00:26:24.889Z,7.40
2018-01-05T00:28:52.370Z,7.40
2018-01-05T00:31:20.893Z,7.60
2018-01-05T00:33:48.367Z,7.60
2018-01-05T00:36:15.851Z,7.70
2018-01-05T00:38:43.329Z,7.60
2018-01-05T00:41:10.897Z,7.50
2018-01-05T00:43:39.138Z,7.30
2018-01-05T00:46:06.731Z,7.30
2018-01-05T00:48:34.971Z,7.00
2018-01-05T00:51:02.458Z,7.00
2018-01-05T00:53:29.954Z,7.00
2018-01-05T00:55:57.426Z,7.10
2018-01-05T00:58:24.926Z,7.30
2018-01-05T01:00:52.410Z,7.40
2018-01-05T01:03:20.670Z,7.50
2018-01-05T01:05:48.916Z,7.50
2018-01-05T01:08:16.400Z,7.50
2018-01-05T01:10:43.879Z,7.70
2018-01-05T01:13:12.110Z,7.90
2018-01-05T01:15:39.697Z,7.90
2018-01-05T01:18:07.943Z,8.10
2018-01-05T01:20:35.414Z,8.00
2018-01-05T01:23:04.411Z,8.10
2018-01-05T01:25:32.651Z,8.10
2018-01-05T01:28:00.121Z,8.10
2018-01-05T01:30:27.611Z,8.00
2018-01-05T01:32:55.175Z,7.90
2018-01-05T01:35:22.639Z,7.70
2018-01-05T01:37:50.892Z,7.60
2018-01-05T01:40:19.902Z,7.60
2018-01-05T01:42:47.467Z,7.60
2018-01-05T01:45:15.718Z,7.80
2018-01-05T01:47:43.347Z,7.80
2018-01-05T01:50:10.811Z,7.80
2018-01-05T01:52:38.286Z,7.90
2018-01-05T01:55:05.758Z,7.90
2018-01-05T01:57:33.234Z,7.90
2018-01-05T02:00:01.482Z,7.80
2018-01-05T02:02:28.958Z,7.80
2018-01-05T02:04:57.208Z,7.70
2018-01-05T02:07:24.694Z,7.60
2018-01-05T02:09:52.162Z,7.50
2018-01-05T02:12:20.405Z,7.30
2018-01-05T02:14:47.887Z,7.30
2018-01-05T02:17:15.354Z,7.20
2018-01-05T02:19:43.647Z,7.00
2018-01-05T02:22:11.286Z,7.00
2018-01-05T02:24:38.753Z,7.00
2018-01-05T02:27:06.997Z,6.90
2018-01-05T02:29:34.483Z,6.90
2018-01-05T02:32:02.723Z,6.90
2018-01-05T02:34:30.196Z,6.90
2018-01-05T02:36:57.691Z,6.90
2018-01-05T02:39:25.925Z,6.80
2018-01-05T02:41:53.405Z,6.80
2018-01-05T02:44:20.891Z,6.80
2018-01-05T02:46:48.365Z,6.70
2018-01-05T02:49:15.867Z,6.60
2018-01-05T02:51:43.447Z,6.60
2018-01-05T02:54:11.682Z,6.60
2018-01-05T02:56:39.156Z,6.60
2018-01-05T02:59:06.636Z,6.60
2018-01-05T03:01:34.878Z,6.50
2018-01-05T03:04:02.354Z,6.40
2018-01-05T03:06:29.834Z,6.40
2018-01-05T03:08:58.102Z,6.50
2018-01-05T03:11:26.342Z,6.50
2018-01-05T03:13:53.826Z,6.40
2018-01-05T03:16:21.439Z,6.40
2018-01-05T03:18:48.907Z,6.20
2018-01-05T03:21:16.429Z,6.20
2018-01-05T03:23:44.662Z,6.10
2018-01-05T03:26:12.209Z,6.10
2018-01-05T03:28:40.418Z,6.00
2018-01-05T03:31:07.896Z,6.00
2018-01-05T03:33:36.140Z,5.80
2018-01-05T03:36:03.623Z,5.80
2018-01-05T03:38:31.865Z,5.80
2018-01-05T03:40:59.347Z,5.80
2018-01-05T03:43:26.915Z,5.80
2018-01-05T03:45:55.157Z,5.70
2018-01-05T03:48:22.751Z,5.70
2018-01-05T03:50:50.999Z,5.60
2018-01-05T03:53:18.471Z,5.60
2018-01-05T03:55:45.946Z,5.60
2018-01-05T03:58:14.215Z,5.50
2018-01-05T04:00:41.995Z,5.50
2018-01-05T04:03:10.231Z,5.40
2018-01-05T04:05:37.707Z,5.40
2018-01-05T04:08:05.946Z,5.70
2018-01-05T04:10:33.454Z,5.70
2018-01-05T04:13:01.726Z,5.80
2018-01-05T04:15:29.980Z,5.80
2018-01-05T04:17:57.528Z,5.80
2018-01-05T04:20:25.006Z,5.80
2018-01-05T04:22:52.482Z,5.70
2018-01-05T04:25:20.720Z,5.80
2018-01-05T04:27:48.207Z,5.80
2018-01-05T04:30:15.780Z,5.70
2018-01-05T04:32:44.023Z,5.50
2018-01-05T04:35:11.923Z,5.50
2018-01-05T04:37:40.196Z,5.30
2018-01-05T04:40:08.477Z,5.30
2018-01-05T04:42:37.089Z,5.10
2018-01-05T04:45:04.969Z,5.10
2018-01-05T04:47:32.455Z,5.00
2018-01-05T04:49:59.944Z,5.00
2018-01-05T04:52:28.184Z,4.90
2018-01-05T04:54:55.648Z,4.90
2018-01-05T04:57:23.139Z,4.70
2018-01-05T04:59:51.371Z,4.60
2018-01-05T05:02:18.847Z,4.60
2018-01-05T05:04:46.418Z,4.60
2018-01-05T05:07:13.918Z,4.60
2018-01-05T05:09:41.386Z,4.70
2018-01-05T05:12:08.898Z,4.70
2018-01-05T05:14:37.180Z,4.70
2018-01-05T05:17:05.446Z,4.60
2018-01-05T05:19:32.922Z,4.60
2018-01-05T05:22:01.158Z,4.50
2018-01-05T05:24:28.630Z,4.50
2018-01-05T05:26:56.118Z,4.40
2018-01-05T05:29:24.648Z,4.30
2018-01-05T05:31:52.119Z,4.30
2018-01-05T05:34:19.603Z,4.20
2018-01-05T05:36:47.844Z,4.10
2018-01-05T05:39:15.321Z,4.10
2018-01-05T05:41:43.207Z,4.10
2018-01-05T05:44:12.117Z,4.10
2018-01-05T05:46:39.607Z,4.10
2018-01-05T05:49:07.105Z,4.10
2018-01-05T05:51:34.586Z,4.10
2018-01-05T05:54:02.073Z,4.00
2018-01-05T05:56:29.558Z,4.00
2018-01-05T05:58:57.066Z,4.00
2018-01-05T06:01:24.563Z,3.90
2018-01-05T06:03:52.047Z,3.80
2018-01-05T06:06:20.302Z,3.60
2018-01-05T06:08:47.766Z,3.60
2018-01-05T06:11:15.346Z,3.50
2018-01-05T06:13:42.828Z,3.60
2018-01-05T06:16:10.314Z,3.60
2018-01-05T06:18:37.799Z,3.60
2018-01-05T06:21:05.290Z,3.50
2018-01-05T06:23:33.518Z,3.70
2018-01-05T06:26:01.016Z,3.70
2018-01-05T06:28:28.500Z,3.70
2018-01-05T06:30:55.993Z,3.70
2018-01-05T06:33:23.473Z,3.70
2018-01-05T06:35:50.955Z,3.70
2018-01-05T06:38:19.194Z,3.70
2018-01-05T06:40:46.711Z,3.60
2018-01-05T06:43:14.409Z,3.60
2018-01-05T06:45:42.353Z,3.60
2018-01-05T06:48:09.951Z,3.70
2018-01-05T06:50:37.417Z,3.70
2018-01-05T06:53:04.899Z,3.60
2018-01-05T06:55:33.166Z,3.60
2018-01-05T06:58:00.642Z,3.60
2018-01-05T07:00:28.915Z,3.50
2018-01-05T07:02:57.163Z,3.60
2018-01-05T07:05:24.632Z,3.50
2018-01-05T07:07:52.198Z,3.60
2018-01-05T07:10:20.490Z,3.70
2018-01-05T07:12:48.722Z,3.80
2018-01-05T07:15:16.186Z,3.80
2018-01-05T07:17:43.670Z,3.90
2018-01-05T07:20:11.983Z,4.10
2018-01-05T07:22:39.528Z,4.10
2018-01-05T07:25:07.008Z,4.20
2018-01-05T07:27:35.378Z,4.20
2018-01-05T07:30:02.844Z,4.20
2018-01-05T07:32:30.325Z,4.20
2018-01-05T07:34:57.794Z,4.20
2018-01-05T07:37:26.104Z,4.30
2018-01-05T07:39:54.362Z,4.40
2018-01-05T07:42:21.943Z,4.40
2018-01-05T07:44:49.431Z,4.50
2018-01-05T07:47:16.911Z,4.60
2018-01-05T07:49:44.395Z,4.70
2018-01-05T07:52:13.369Z,4.90
2018-01-05T07:54:40.859Z,4.90
2018-01-05T07:57:09.100Z,5.00
2018-01-05T07:59:36.593Z,5.00
2018-01-05T08:02:04.845Z,5.10
2018-01-05T08:04:32.363Z,5.10
2018-01-05T08:06:59.859Z,5.20
2018-01-05T08:09:27.346Z,5.30
2018-01-05T08:11:55.594Z,5.40
2018-01-05T08:14:23.059Z,5.40
2018-01-05T08:16:50.542Z,5.50
2018-01-05T08:19:18.846Z,5.60
2018-01-05T08:21:46.326Z,5.60
2018-01-05T08:24:13.812Z,5.60
2018-01-05T08:26:41.306Z,5.60
2018-01-05T08:29:08.848Z,5.60
2018-01-05T08:31:37.090Z,5.80
2018-01-05T08:34:04.558Z,5.80
2018-01-05T08:36:32.030Z,5.90
2018-01-05T08:38:59.594Z,5.90
2018-01-05T08:41:27.839Z,6.00
2018-01-05T08:43:55.326Z,6.00
2018-01-05T08:46:22.827Z,6.00
2018-01-05T08:48:50.392Z,6.10
2018-01-05T08:51:17.909Z,6.10
2018-01-05T08:53:46.159Z,6.20
2018-01-05T08:56:13.639Z,6.20
2018-01-05T08:58:41.115Z,6.20
2018-01-05T09:01:09.359Z,6.40
2018-01-05T09:03:36.829Z,6.40
2018-01-05T09:06:04.319Z,6.50
2018-01-05T09:08:31.799Z,6.50
2018-01-05T09:10:59.271Z,6.60
2018-01-05T09:13:26.747Z,6.80
2018-01-05T09:15:54.274Z,6.90
2018-01-05T09:18:21.742Z,7.10
2018-01-05T09:20:49.242Z,7.20
2018-01-05T09:23:17.762Z,7.60
2018-01-05T09:25:45.279Z,7.60
2018-01-05T09:28:12.834Z,7.70
2018-01-05T09:30:40.318Z,7.90
2018-01-05T09:33:07.802Z,8.00
2018-01-05T09:35:35.274Z,8.10
2018-01-05T09:38:02.766Z,8.20
2018-01-05T09:40:30.240Z,8.30
2018-01-05T09:42:58.508Z,8.60
2018-01-05T09:45:26.784Z,8.70
2018-01-05T09:47:55.026Z,8.80
2018-01-05T09:50:22.493Z,8.80
2018-01-05T09:52:49.988Z,8.90
2018-01-05T09:55:18.269Z,9.10
2018-01-05T09:57:46.505Z,9.10
2018-01-05T10:00:13.996Z,9.10
2018-01-05T10:02:42.265Z,9.20
2018-01-05T10:05:09.767Z,9.20
2018-01-05T10:07:37.253Z,9.20
2018-01-05T10:10:04.739Z,9.30
2018-01-05T10:12:32.992Z,9.50
2018-01-05T10:15:00.527Z,9.50
2018-01-05T10:17:28.032Z,9.70
2018-01-05T10:19:56.267Z,9.80
2018-01-05T10:22:23.751Z,9.70
2018-01-05T10:24:51.331Z,9.70
2018-01-05T10:27:19.570Z,9.80
2018-01-05T10:29:47.163Z,9.80
2018-01-05T10:32:14.854Z,9.90
2018-01-05T10:34:42.384Z,9.80
2018-01-05T10:37:09.942Z,9.70
2018-01-05T10:39:37.543Z,9.60
2018-01-05T10:42:05.068Z,9.50
2018-01-05T10:44:33.390Z,9.20
2018-01-05T10:47:00.884Z,9.20
2018-01-05T10:49:28.458Z,9.30
2018-01-05T10:51:55.942Z,9.20
2018-01-05T10:54:23.411Z,9.10
2018-01-05T10:56:50.937Z,9.10
2018-01-05T10:59:19.183Z,9.20
2018-01-05T11:01:46.657Z,9.20
2018-01-05T11:04:14.139Z,9.20
2018-01-05T11:06:42.407Z,9.10
2018-01-05T11:09:10.643Z,9.10
2018-01-05T11:11:38.111Z,9.10
2018-01-05T11:14:05.599Z,9.10
2018-01-05T11:16:33.843Z,9.10
2018-01-05T11:19:01.315Z,9.10
2018-01-05T11:21:29.571Z,9.20
2018-01-05T11:23:57.042Z,9.20
2018-01-05T11:26:24.626Z,9.20
2018-01-05T11:28:52.898Z,9.30
2018-01-05T11:31:20.370Z,9.30
2018-01-05T11:33:48.633Z,9.50
2018-01-05T11:36:16.208Z,9.50
2018-01-05T11:38:44.452Z,9.60
2018-01-05T11:41:11.926Z,9.60
2018-01-05T11:43:39.798Z,9.70
2018-01-05T11:46:08.073Z,10.00
2018-01-05T11:48:36.313Z,10.30
2018-01-05T11:51:03.913Z,10.30
2018-01-05T11:53:32.156Z,10.50
2018-01-05T11:55:59.646Z,10.50
2018-01-05T11:58:27.904Z,10.60
2018-01-05T12:00:55.383Z,10.60
2018-01-05T12:03:23.623Z,10.40
2018-01-05T12:05:51.113Z,10.40
2018-01-05T12:08:19.353Z,10.10
2018-01-05T12:10:46.835Z,10.10
2018-01-05T12:13:14.415Z,10.00
2018-01-05T12:15:43.470Z,9.70
2018-01-05T12:18:10.962Z,9.70
2018-01-05T12:20:39.222Z,9.60
2018-01-05T12:23:07.043Z,9.60
2018-01-05T12:25:34.516Z,9.60
2018-01-05T12:28:02.027Z,9.60
2018-01-05T12:30:30.270Z,9.50
2018-01-05T12:32:57.742Z,9.50
2018-01-05T12:35:25.226Z,9.50
2018-01-05T12:37:52.702Z,9.50
2018-01-05T12:40:20.170Z,9.50
2018-01-05T12:42:47.654Z,9.60
2018-01-05T12:45:15.128Z,9.60
2018-01-05T12:47:42.598Z,9.60
2018-01-05T12:50:10.198Z,9.70
2018-01-05T12:52:37.720Z,9.70
2018-01-05T12:55:05.194Z,9.70
2018-01-05T12:57:32.752Z,9.80
2018-01-05T13:00:01.012Z,9.90
2018-01-05T13:02:29.285Z,10.00
2018-01-05T13:04:56.769Z,10.00
2018-01-05T13:07:24.767Z,10.00
2018-01-05T13:09:52.247Z,10.00
2018-01-05T13:12:19.743Z,10.00
2018-01-05T13:14:47.987Z,10.10
2018-01-05T13:17:15.481Z,10.20
2018-01-05T13:19:43.751Z,10.20
2018-01-05T13:22:12.000Z,10.00
2018-01-05T13:24:39.466Z,10.00
2018-01-05T13:27:06.954Z,10.00
2018-01-05T13:29:35.186Z,9.90
2018-01-05T13:32:02.677Z,9.90
2018-01-05T13:34:30.952Z,9.80
2018-01-05T13:36:59.208Z,9.70
2018-01-05T13:39:26.674Z,9.70
2018-01-05T13:41:54.251Z,9.70
2018-01-05T13:44:22.488Z,9.60
2018-01-05T13:46:49.954Z,9.60
2018-01-05T13:49:17.539Z,9.60
2018-01-05T13:51:45.782Z,9.60
2018-01-05T13:54:13.256Z,9.60
2018-01-05T13:56:40.741Z,9.60
2018-01-05T13:59:08.980Z,9.50
2018-01-05T14:01:36.463Z,9.50
2018-01-05T14:04:04.721Z,9.60
2018-01-05T14:06:32.207Z,9.60
2018-01-05T14:09:00.509Z,9.50
2018-01-05T14:11:28.005Z,9.50
2018-01-05T14:13:55.482Z,9.40
2018-01-05T14:16:23.055Z,9.50
2018-01-05T14:18:51.311Z,9.30
2018-01-05T14:21:18.895Z,9.30
2018-01-05T14:23:48.087Z,9.20
2018-01-05T14:26:16.359Z,9.20
2018-01-05T14:28:43.927Z,9.20
2018-01-05T14:31:12.215Z,9.00
2018-01-05T14:33:40.462Z,9.00
2018-01-05T14:36:07.936Z,8.90
2018-01-05T14:38:36.170Z,8.90
2018-01-05T14:41:03.654Z,8.90
2018-01-05T14:43:32.654Z,8.90
2018-01-05T14:46:00.171Z,8.90
2018-01-05T14:48:27.680Z,8.80
2018-01-05T14:50:55.940Z,8.80
2018-01-05T14:53:23.430Z,8.80
2018-01-05T14:55:51.684Z,8.70
2018-01-05T14:58:19.252Z,8.70
2018-01-05T15:00:47.496Z,8.60
2018-01-05T15:03:15.584Z,8.60
2018-01-05T15:05:44.576Z,8.60
2018-01-05T15:08:12.045Z,8.60
2018-01-05T15:10:39.541Z,8.60
2018-01-05T15:13:07.071Z,8.60
2018-01-05T15:15:35.311Z,8.90
2018-01-05T15:18:02.811Z,8.80
2018-01-05T15:20:31.051Z,8.80
2018-01-05T15:22:58.545Z,8.80
2018-01-05T15:25:26.798Z,8.80
2018-01-05T15:27:54.296Z,8.80
2018-01-05T15:30:21.779Z,8.70
2018-01-05T15:32:55.332Z,8.70
2018-01-05T15:35:23.613Z,8.60
2018-01-05T15:37:51.868Z,8.60
2018-01-05T15:40:19.358Z,8.60
2018-01-05T15:42:46.842Z,8.50
2018-01-05T15:45:14.324Z,8.50
2018-01-05T15:47:41.850Z,8.50
2018-01-05T15:50:09.322Z,8.40
2018-01-05T15:52:36.802Z,8.40
2018-01-05T15:55:04.431Z,8.40
2018-01-05T15:57:31.910Z,8.40
2018-01-05T15:59:59.405Z,8.40
2018-01-05T16:02:26.970Z,8.40
2018-01-05T16:04:55.242Z,8.40
2018-01-05T16:07:22.807Z,8.30
2018-01-05T16:09:51.063Z,8.40
2018-01-05T16:12:18.552Z,8.40
2018-01-05T16:14:46.799Z,8.40
2018-01-05T16:17:14.381Z,8.40
2018-01-05T16:19:42.664Z,8.40
2018-01-05T16:22:11.569Z,8.40
2018-01-05T16:24:39.064Z,8.40
2018-01-05T16:27:06.543Z,8.40
2018-01-05T16:29:34.015Z,8.50
2018-01-05T16:32:02.303Z,8.60
2018-01-05T16:34:30.557Z,8.60
2018-01-05T16:36:58.140Z,8.60
2018-01-05T16:39:26.403Z,8.60
2018-01-05T16:41:53.882Z,8.60
2018-01-05T16:44:22.142Z,8.60
2018-01-05T16:46:50.402Z,8.60
2018-01-05T16:49:18.226Z,8.50
2018-01-05T16:51:45.702Z,8.50
2018-01-05T16:54:13.830Z,8.40
2018-01-05T16:56:42.090Z,8.30
2018-01-05T16:59:10.334Z,8.30
2018-01-05T17:01:37.826Z,8.30
2018-01-05T17:04:06.075Z,8.20
2018-01-05T17:06:33.548Z,8.20
2018-01-05T17:09:01.029Z,8.20
2018-01-05T17:11:29.270Z,8.30
2018-01-05T17:13:56.744Z,8.20
2018-01-05T17:16:24.247Z,8.30
2018-01-05T17:18:51.780Z,8.30
2018-01-05T17:21:20.045Z,8.30
2018-01-05T17:23:48.305Z,8.30
2018-01-05T17:26:15.815Z,8.30
2018-01-05T17:28:43.291Z,8.30
2018-01-05T17:31:10.787Z,8.30
2018-01-05T17:33:38.307Z,8.40
2018-01-05T17:36:05.783Z,8.40
2018-01-05T17:38:33.271Z,8.40
2018-01-05T17:41:00.839Z,8.40
2018-01-05T17:43:29.086Z,8.50
2018-01-05T17:45:56.599Z,8.50
2018-01-05T17:48:24.074Z,8.50
2018-01-05T17:50:51.582Z,8.50
2018-01-05T17:53:19.858Z,8.50
2018-01-05T17:55:48.145Z,8.50
2018-01-05T17:58:16.388Z,8.50
2018-01-05T18:00:44.741Z,8.50
2018-01-05T18:03:12.250Z,8.50
2018-01-05T18:05:40.496Z,8.50
2018-01-05T18:08:09.381Z,8.50
2018-01-05T18:10:36.863Z,8.50
2018-01-05T18:13:04.434Z,8.50
2018-01-05T18:15:32.715Z,8.50
2018-01-05T18:18:01.013Z,8.50
2018-01-05T18:20:28.547Z,8.50
2018-01-05T18:22:56.047Z,8.50
2018-01-05T18:25:23.537Z,8.50
2018-01-05T18:27:51.071Z,8.40
2018-01-05T18:30:19.235Z,8.40
2018-01-05T18:32:46.767Z,8.40
2018-01-05T18:35:15.011Z,8.50
2018-01-05T18:37:42.495Z,8.50
2018-01-05T18:40:10.740Z,8.50
2018-01-05T18:42:38.223Z,8.50
2018-01-05T18:45:05.721Z,8.60
2018-01-05T18:47:33.257Z,8.60
2018-01-05T18:50:01.502Z,8.60
2018-01-05T18:52:29.000Z,8.50
2018-01-05T18:54:56.786Z,8.50
2018-01-05T18:57:24.690Z,8.40
2018-01-05T18:59:52.288Z,8.40
2018-01-05T19:02:20.548Z,8.30
2018-01-05T19:04:48.029Z,8.30
2018-01-05T19:07:16.280Z,8.30
2018-01-05T19:09:44.540Z,8.30
2018-01-05T19:12:12.024Z,8.30
2018-01-05T19:14:40.280Z,8.40
2018-01-05T19:17:07.873Z,8.40
2018-01-05T19:19:36.150Z,8.30
2018-01-05T19:22:04.419Z,8.30
2018-01-05T19:24:32.695Z,8.30
2018-01-05T19:27:00.946Z,8.40
2018-01-05T19:29:28.529Z,8.40
2018-01-05T19:31:56.781Z,8.40
2018-01-05T19:34:24.275Z,8.40
2018-01-05T19:36:52.559Z,8.40
2018-01-05T19:39:20.102Z,8.30
2018-01-05T19:41:48.369Z,8.30
2018-01-05T19:44:16.661Z,8.30
2018-01-05T19:46:45.575Z,8.40
2018-01-05T19:49:13.422Z,8.30
2018-01-05T19:51:41.674Z,8.40
2018-01-05T19:54:09.170Z,8.40
2018-01-05T19:56:36.798Z,8.50
2018-01-05T19:59:05.056Z,8.50
2018-01-05T20:01:32.556Z,8.50
2018-01-05T20:04:00.029Z,8.50
2018-01-05T20:06:27.554Z,8.50
2018-01-05T20:08:55.095Z,8.40
2018-01-05T20:11:22.554Z,8.50
2018-01-05T20:13:50.065Z,8.50
2018-01-05T20:16:17.550Z,8.50
2018-01-05T20:18:45.092Z,8.60
2018-01-05T20:21:13.520Z,8.70
2018-01-05T20:23:40.995Z,8.90
2018-01-05T20:26:09.249Z,9.00
2018-01-05T20:28:36.813Z,9.00
2018-01-05T20:31:05.853Z,9.10
2018-01-05T20:33:33.365Z,9.10
2018-01-05T20:36:01.625Z,9.10
2018-01-05T20:38:29.099Z,9.00
2018-01-05T20:40:56.637Z,9.00
2018-01-05T20:43:24.232Z,8.90
2018-01-05T20:45:52.548Z,8.70
2018-01-05T20:48:20.033Z,8.70
2018-01-05T20:50:47.542Z,8.60
2018-01-05T20:53:15.089Z,8.50
2018-01-05T20:55:43.448Z,8.50
2018-01-05T20:58:10.946Z,8.40
2018-01-05T21:00:38.432Z,8.30
2018-01-05T21:03:05.908Z,8.30
2018-01-05T21:05:33.394Z,8.30
2018-01-05T21:08:01.679Z,8.20
2018-01-05T21:10:29.926Z,8.20
2018-01-05T21:12:57.420Z,8.20
2018-01-05T21:15:25.670Z,8.20
2018-01-05T21:17:53.152Z,8.20
2018-01-05T21:20:21.414Z,8.20
2018-01-05T21:22:49.664Z,8.10
2018-01-05T21:25:17.141Z,8.10
2018-01-05T21:27:45.423Z,8.10
2018-01-05T21:30:13.711Z,8.10
2018-01-05T21:32:42.007Z,8.00
2018-01-05T21:35:09.544Z,8.00
2018-01-05T21:37:37.793Z,8.00
2018-01-05T21:40:05.277Z,8.00
2018-01-05T21:42:33.537Z,8.00
2018-01-05T21:45:01.019Z,7.90
2018-01-05T21:47:29.301Z,7.90
2018-01-05T21:49:56.927Z,7.90
2018-01-05T21:52:24.421Z,7.90
2018-01-05T21:54:52.669Z,7.90
2018-01-05T21:57:20.175Z,7.80
2018-01-05T21:59:47.668Z,7.90
2018-01-05T22:02:15.142Z,7.90
2018-01-05T22:04:42.634Z,7.90
2018-01-05T22:07:10.118Z,7.90
2018-01-05T22:09:37.634Z,7.90
2018-01-05T22:12:05.912Z,7.90
2018-01-05T22:14:34.158Z,7.90
2018-01-05T22:17:01.766Z,7.90
2018-01-05T22:19:29.258Z,7.90
2018-01-05T22:21:56.745Z,7.90
2018-01-05T22:24:24.226Z,7.90
2018-01-05T22:26:52.478Z,7.90
2018-01-05T22:29:19.976Z,7.80
2018-01-05T22:31:47.453Z,7.80
2018-01-05T22:34:14.974Z,7.80
2018-01-05T22:36:43.239Z,7.80
2018-01-05T22:39:10.811Z,7.80
2018-01-05T22:41:39.087Z,7.80
2018-01-05T22:44:07.343Z,7.80
2018-01-05T22:46:35.756Z,7.80
2018-01-05T22:49:04.015Z,7.80
2018-01-05T22:51:31.511Z,7.80
2018-01-05T22:53:58.991Z,7.80
2018-01-05T22:56:26.503Z,7.80
2018-01-05T22:58:54.743Z,7.80
2018-01-05T23:01:22.222Z,7.70
2018-01-05T23:03:49.787Z,7.80
2018-01-05T23:06:18.075Z,7.80
2018-01-05T23:08:46.344Z,7.80
2018-01-05T23:11:14.610Z,7.80
2018-01-05T23:13:42.174Z,7.70
2018-01-05T23:16:09.648Z,7.80
2018-01-05T23:18:37.902Z,7.80
2018-01-05T23:21:05.395Z,7.80
2018-01-05T23:23:32.866Z,7.80
2018-01-05T23:26:00.388Z,7.80
2018-01-05T23:28:27.888Z,7.80
2018-01-05T23:30:55.441Z,7.80
2018-01-05T23:33:22.937Z,7.80
2018-01-05T23:35:50.447Z,7.80
2018-01-05T23:38:17.969Z,7.80
2018-01-05T23:40:45.453Z,7.80
2018-01-05T23:43:12.943Z,7.70
2018-01-05T23:45:40.421Z,7.80
2018-01-05T23:48:07.911Z,7.70
2018-01-05T23:50:35.391Z,7.70
2018-01-05T23:53:02.875Z,7.70
2018-01-05T23:55:30.391Z,7.60
2018-01-05T23:57:58.056Z,7.70
